createdAt,value
2019-06-07T00:00:52.044Z,98.70
2019-06-07T00:03:29.462Z,98.70
2019-06-07T00:05:53.490Z,98.50
2019-06-07T00:08:28.406Z,98.90
2019-06-07T00:10:54.296Z,98.90
2019-06-07T00:13:23.847Z,98.70
2019-06-07T00:15:53.410Z,98.60
2019-06-07T00:18:25.935Z,98.50
2019-06-07T00:20:54.258Z,98.30
2019-06-07T00:23:23.963Z,98.20
2019-06-07T00:25:53.591Z,98.40
2019-06-07T00:28:24.630Z,98.60
2019-06-07T00:30:54.349Z,98.70
2019-06-07T00:33:25.097Z,98.20
2019-06-07T00:35:55.858Z,98.30
2019-06-07T00:38:25.527Z,98.50
2019-06-07T00:40:55.172Z,98.50
2019-06-07T00:43:28.201Z,98.40
2019-06-07T00:45:57.741Z,98.20
2019-06-07T00:48:32.565Z,98.30
2019-06-07T00:50:59.752Z,98.50
2019-06-07T00:53:32.408Z,98.70
2019-06-07T00:56:00.990Z,98.80
2019-06-07T00:58:30.741Z,98.70
2019-06-07T01:01:00.419Z,98.80
2019-06-07T01:03:30.144Z,98.40
2019-06-07T01:05:59.847Z,98.80
2019-06-07T01:08:30.179Z,98.90
2019-06-07T01:11:00.102Z,98.90
2019-06-07T01:13:29.678Z,98.70
2019-06-07T01:15:59.286Z,99.00
2019-06-07T01:18:42.893Z,99.00
2019-06-07T01:21:00.138Z,98.70
2019-06-07T01:26:01.102Z,98.70
2019-06-07T01:28:30.761Z,98.80
2019-06-07T01:31:00.332Z,98.70
2019-06-07T01:33:49.799Z,98.70
2019-06-07T01:36:01.154Z,98.90
2019-06-07T01:38:30.792Z,98.80
2019-06-07T01:41:00.451Z,98.90
2019-06-07T01:43:31.061Z,99.00
2019-06-07T01:46:00.977Z,99.10
2019-06-07T01:48:48.575Z,99.20
2019-06-07T01:51:01.910Z,99.30
2019-06-07T01:53:31.783Z,99.20
2019-06-07T01:56:00.610Z,99.10
2019-06-07T01:58:30.215Z,99.10
2019-06-07T02:00:59.867Z,98.80
2019-06-07T02:03:32.869Z,98.80
2019-06-07T02:06:00.800Z,98.60
2019-06-07T02:08:34.379Z,98.60
2019-06-07T02:11:01.749Z,98.30
2019-06-07T02:13:31.444Z,98.50
2019-06-07T02:16:01.004Z,98.30
2019-06-07T02:18:34.720Z,98.50
2019-06-07T02:21:01.937Z,98.70
2019-06-07T02:23:33.609Z,98.90
2019-06-07T02:26:02.733Z,98.70
2019-06-07T02:28:44.743Z,99.10
2019-06-07T02:31:03.556Z,99.30
2019-06-07T02:33:39.110Z,99.20
2019-06-07T02:36:04.464Z,99.00
2019-06-07T02:38:37.265Z,99.00
2019-06-07T02:41:05.438Z,99.20
2019-06-07T02:43:37.190Z,99.30
2019-06-07T02:46:25.076Z,99.50
2019-06-07T02:48:40.411Z,99.50
2019-06-07T02:51:11.243Z,99.40
2019-06-07T02:53:40.911Z,99.10
2019-06-07T02:56:52.203Z,99.30
2019-06-07T02:58:42.275Z,99.50
2019-06-07T03:01:12.242Z,99.40
2019-06-07T03:03:41.190Z,99.40
2019-06-07T03:06:13.723Z,99.70
2019-06-07T03:08:45.598Z,99.70
2019-06-07T03:11:16.642Z,99.50
2019-06-07T03:13:48.368Z,99.50
2019-06-07T03:16:20.127Z,99.50
2019-06-07T03:18:54.023Z,99.60
2019-06-07T03:21:27.717Z,99.70
2019-06-07T03:23:56.924Z,99.90
2019-06-07T03:26:27.584Z,99.90
2019-06-07T03:28:58.127Z,99.70
2019-06-07T03:31:28.465Z,99.70
2019-06-07T03:34:00.058Z,99.70
2019-06-07T03:36:29.809Z,99.30
2019-06-07T03:38:59.476Z,99.20
2019-06-07T03:41:32.315Z,99.10
2019-06-07T03:44:01.286Z,99.40
2019-06-07T03:46:36.230Z,99.50
2019-06-07T03:49:02.621Z,98.80
2019-06-07T03:51:34.526Z,99.30
2019-06-07T03:54:03.503Z,99.20
2019-06-07T03:56:33.737Z,99.50
2019-06-07T03:59:03.568Z,99.70
2019-06-07T04:01:34.828Z,99.60
2019-06-07T04:04:04.743Z,99.40
2019-06-07T04:06:36.220Z,99.40
2019-06-07T04:09:07.264Z,99.10
2019-06-07T04:11:39.390Z,99.10
2019-06-07T04:14:08.206Z,99.40
2019-06-07T04:16:43.567Z,99.50
2019-06-07T04:19:09.216Z,99.70
2019-06-07T04:21:42.497Z,99.90
2019-06-07T04:24:10.109Z,99.40
2019-06-07T04:26:43.541Z,99.70
2019-06-07T04:31:43.188Z,99.80
2019-06-07T04:34:13.088Z,99.60
2019-06-07T04:36:56.705Z,99.70
2019-06-07T04:39:14.938Z,99.50
2019-06-07T04:41:43.963Z,99.70
2019-06-07T04:44:17.303Z,99.80
2019-06-07T04:46:50.120Z,99.40
2019-06-07T04:49:22.455Z,99.10
2019-06-07T04:51:53.144Z,99.30
2019-06-07T04:54:22.857Z,99.40
2019-06-07T04:56:52.480Z,99.50
2019-06-07T05:00:01.246Z,99.50
2019-06-07T05:01:53.512Z,99.40
2019-06-07T05:04:23.238Z,99.40
2019-06-07T05:06:52.844Z,99.50
2019-06-07T05:09:22.508Z,99.50
2019-06-07T05:11:51.936Z,99.40
2019-06-07T05:14:21.811Z,99.50
2019-06-07T05:16:51.702Z,99.40
2019-06-07T05:19:20.591Z,99.10
2019-06-07T05:22:03.527Z,98.70
2019-06-07T05:24:21.397Z,98.40
2019-06-07T05:26:51.043Z,98.30
2019-06-07T05:29:20.864Z,98.30
2019-06-07T05:31:49.695Z,98.10
2019-06-07T05:34:19.185Z,97.60
2019-06-07T05:37:10.463Z,97.60
2019-06-07T05:39:20.168Z,97.70
2019-06-07T05:41:49.878Z,97.80
2019-06-07T05:44:19.565Z,97.70
2019-06-07T05:46:49.141Z,97.80
2019-06-07T05:49:18.786Z,97.60
2019-06-07T05:51:48.515Z,97.80
2019-06-07T05:54:17.291Z,97.70
2019-06-07T05:56:46.781Z,97.20
2019-06-07T05:59:16.476Z,97.20
2019-06-07T06:01:56.315Z,96.80
2019-06-07T06:04:17.314Z,95.90
2019-06-07T06:06:47.582Z,96.10
2019-06-07T06:09:17.394Z,96.60
2019-06-07T06:11:59.513Z,95.90
2019-06-07T06:14:18.250Z,95.50
2019-06-07T06:16:49.874Z,96.10
2019-06-07T06:19:19.084Z,96.50
2019-06-07T06:21:48.780Z,96.40
2019-06-07T06:24:17.635Z,95.90
2019-06-07T06:26:52.167Z,95.90
2019-06-07T06:29:18.485Z,95.30
2019-06-07T06:32:35.508Z,94.70
2019-06-07T06:34:18.574Z,94.70
2019-06-07T06:36:50.362Z,95.10
2019-06-07T06:39:19.493Z,95.00
2019-06-07T06:41:58.489Z,94.30
2019-06-07T06:44:19.739Z,94.40
2019-06-07T06:46:57.278Z,94.70
2019-06-07T06:49:20.776Z,93.90
2019-06-07T06:51:53.348Z,92.70
2019-06-07T06:54:39.375Z,92.20
2019-06-07T06:56:52.855Z,92.60
2019-06-07T06:59:38.063Z,92.40
2019-06-07T07:01:54.120Z,92.50
2019-06-07T07:04:23.145Z,92.30
2019-06-07T07:06:53.700Z,91.20
2019-06-07T07:09:25.139Z,90.70
2019-06-07T07:12:10.221Z,91.20
2019-06-07T07:14:26.270Z,90.60
2019-06-07T07:16:56.614Z,90.70
2019-06-07T07:19:27.440Z,88.00
2019-06-07T07:21:56.242Z,88.80
2019-06-07T07:24:25.768Z,87.10
2019-06-07T07:26:58.257Z,86.30
2019-06-07T07:29:25.799Z,85.60
2019-06-07T07:31:56.483Z,86.40
2019-06-07T07:34:35.290Z,84.20
2019-06-07T07:36:59.650Z,83.90
2019-06-07T07:39:29.018Z,82.60
2019-06-07T07:42:17.721Z,81.70
2019-06-07T07:44:29.996Z,80.20
2019-06-07T07:46:59.711Z,79.90
2019-06-07T07:49:28.572Z,80.10
2019-06-07T07:51:59.098Z,81.00
2019-06-07T07:54:28.813Z,79.80
2019-06-07T07:56:59.752Z,81.50
2019-06-07T07:59:41.775Z,80.70
2019-06-07T08:01:59.839Z,75.00
2019-06-07T08:05:12.002Z,75.80
2019-06-07T08:07:00.002Z,75.50
2019-06-07T08:09:29.641Z,73.50
2019-06-07T08:12:00.775Z,75.70
2019-06-07T08:14:29.697Z,75.30
2019-06-07T08:16:59.304Z,78.10
2019-06-07T08:19:28.937Z,75.90
2019-06-07T08:22:01.602Z,77.00
2019-06-07T08:24:29.836Z,74.30
2019-06-07T08:27:24.554Z,73.50
2019-06-07T08:29:44.510Z,72.70
2019-06-07T08:32:01.026Z,75.00
2019-06-07T08:34:30.845Z,74.30
2019-06-07T08:37:02.073Z,72.00
2019-06-07T08:39:31.884Z,70.90
2019-06-07T08:42:15.307Z,68.10
2019-06-07T08:44:31.966Z,67.40
2019-06-07T08:47:18.894Z,66.80
2019-06-07T08:49:32.849Z,68.70
2019-06-07T08:52:09.865Z,68.50
2019-06-07T08:54:33.859Z,70.50
2019-06-07T08:57:20.106Z,71.00
2019-06-07T08:59:34.820Z,67.70
2019-06-07T09:02:20.743Z,68.10
2019-06-07T09:04:34.821Z,63.90
2019-06-07T09:07:18.430Z,63.50
2019-06-07T09:09:34.866Z,63.50
2019-06-07T09:12:08.069Z,63.10
2019-06-07T09:14:56.494Z,64.20
2019-06-07T09:17:11.694Z,64.00
2019-06-07T09:19:38.520Z,64.60
2019-06-07T09:22:11.185Z,67.50
2019-06-07T09:24:39.342Z,65.90
2019-06-07T09:27:10.407Z,61.20
2019-06-07T09:29:39.556Z,60.80
2019-06-07T09:32:14.859Z,59.30
2019-06-07T09:34:41.496Z,61.80
2019-06-07T09:38:02.701Z,60.20
2019-06-07T09:39:41.754Z,63.80
2019-06-07T09:42:12.754Z,65.70
2019-06-07T09:44:42.645Z,64.20
2019-06-07T09:47:30.353Z,62.60
2019-06-07T09:49:43.619Z,64.10
2019-06-07T09:52:13.301Z,60.20
2019-06-07T09:55:06.025Z,62.00
2019-06-07T09:57:17.298Z,63.00
2019-06-07T09:59:46.896Z,56.70
2019-06-07T10:02:16.656Z,58.30
2019-06-07T10:04:46.457Z,57.20
2019-06-07T10:07:30.556Z,62.60
2019-06-07T10:12:20.236Z,59.20
2019-06-07T10:14:49.938Z,57.50
2019-06-07T10:17:19.719Z,58.00
2019-06-07T10:19:49.477Z,56.70
2019-06-07T10:22:19.176Z,59.00
2019-06-07T10:24:48.874Z,61.10
2019-06-07T10:27:18.505Z,57.00
2019-06-07T10:29:48.127Z,60.00
2019-06-07T10:32:17.848Z,59.70
2019-06-07T10:34:47.514Z,57.20
2019-06-07T10:37:17.256Z,57.50
2019-06-07T10:39:49.256Z,57.90
2019-06-07T10:42:20.189Z,57.40
2019-06-07T10:44:49.740Z,57.70
2019-06-07T10:47:19.354Z,54.10
2019-06-07T10:49:49.064Z,50.90
2019-06-07T10:52:18.712Z,50.20
2019-06-07T10:54:48.272Z,50.90
2019-06-07T10:57:17.896Z,53.60
2019-06-07T10:59:47.434Z,51.60
2019-06-07T11:02:17.188Z,50.80
2019-06-07T11:04:46.896Z,49.00
2019-06-07T11:07:16.575Z,49.00
2019-06-07T11:09:46.372Z,55.80
2019-06-07T11:12:16.006Z,55.40
2019-06-07T11:14:45.722Z,51.30
2019-06-07T11:17:15.895Z,55.90
2019-06-07T11:19:45.646Z,54.40
2019-06-07T11:22:15.311Z,51.30
2019-06-07T11:24:45.045Z,50.40
2019-06-07T11:27:16.303Z,49.20
2019-06-07T11:29:47.292Z,50.00
2019-06-07T11:32:16.914Z,51.50
2019-06-07T11:34:47.585Z,49.40
2019-06-07T11:37:17.359Z,52.10
2019-06-07T11:39:47.866Z,51.00
2019-06-07T11:42:20.087Z,52.50
2019-06-07T11:44:56.955Z,51.30
2019-06-07T11:47:19.847Z,46.30
2019-06-07T11:49:49.445Z,41.20
2019-06-07T11:52:19.089Z,44.60
2019-06-07T11:54:48.691Z,41.60
2019-06-07T11:57:18.330Z,43.40
2019-06-07T11:59:47.930Z,41.30
2019-06-07T12:02:17.710Z,45.10
2019-06-07T12:04:47.478Z,45.20
2019-06-07T12:07:17.711Z,47.20
2019-06-07T12:09:56.493Z,43.60
2019-06-07T12:12:20.581Z,43.40
2019-06-07T12:14:50.525Z,38.40
2019-06-07T12:17:20.359Z,40.90
2019-06-07T12:19:49.899Z,40.30
2019-06-07T12:22:20.042Z,40.20
2019-06-07T12:24:51.563Z,34.70
2019-06-07T12:27:21.785Z,34.00
2019-06-07T12:29:52.412Z,34.40
2019-06-07T12:32:22.055Z,37.90
2019-06-07T12:34:54.817Z,38.50
2019-06-07T12:37:42.062Z,39.40
2019-06-07T12:39:56.339Z,44.00
2019-06-07T12:42:26.040Z,44.20
2019-06-07T12:44:55.705Z,45.10
2019-06-07T12:47:25.431Z,39.90
2019-06-07T12:49:54.968Z,36.50
2019-06-07T12:52:24.701Z,43.00
2019-06-07T12:54:54.344Z,36.30
2019-06-07T12:57:24.236Z,35.50
2019-06-07T12:59:54.027Z,42.20
2019-06-07T13:02:25.151Z,43.80
2019-06-07T13:04:54.869Z,39.00
2019-06-07T13:07:24.497Z,37.40
2019-06-07T13:09:54.058Z,39.90
2019-06-07T13:12:23.888Z,35.40
2019-06-07T13:14:53.605Z,38.50
2019-06-07T13:17:24.165Z,38.60
2019-06-07T13:19:53.992Z,36.50
2019-06-07T13:22:24.409Z,37.80
2019-06-07T13:24:54.071Z,33.40
2019-06-07T13:27:24.546Z,38.50
2019-06-07T13:29:54.411Z,36.30
2019-06-07T13:32:24.192Z,41.00
2019-06-07T13:34:53.752Z,40.60
2019-06-07T13:37:23.459Z,40.00
2019-06-07T13:39:53.043Z,36.30
2019-06-07T13:42:22.888Z,39.30
2019-06-07T13:44:52.690Z,39.10
2019-06-07T13:47:23.110Z,42.10
2019-06-07T13:49:55.176Z,44.10
2019-06-07T13:52:25.200Z,44.70
2019-06-07T13:54:54.823Z,44.30
2019-06-07T13:57:24.484Z,38.10
2019-06-07T13:59:54.036Z,37.20
2019-06-07T14:02:26.134Z,38.10
2019-06-07T14:04:56.037Z,40.40
2019-06-07T14:07:26.929Z,41.90
2019-06-07T14:09:57.148Z,36.20
2019-06-07T14:12:27.854Z,32.70
2019-06-07T14:14:57.521Z,35.70
2019-06-07T14:17:28.321Z,29.90
2019-06-07T14:19:59.117Z,29.80
2019-06-07T14:22:29.019Z,29.80
2019-06-07T14:24:58.742Z,30.80
2019-06-07T14:27:29.609Z,29.80
2019-06-07T14:29:59.455Z,29.30
2019-06-07T14:32:30.837Z,30.40
2019-06-07T14:35:00.504Z,34.60
2019-06-07T14:37:30.970Z,30.10
2019-06-07T14:40:01.634Z,26.30
2019-06-07T14:42:31.323Z,35.60
2019-06-07T14:45:05.734Z,34.30
2019-06-07T14:47:32.304Z,35.90
2019-06-07T14:50:01.813Z,38.00
2019-06-07T14:52:33.436Z,36.40
2019-06-07T14:55:02.910Z,36.50
2019-06-07T14:57:33.800Z,37.30
2019-06-07T15:00:11.224Z,37.10
2019-06-07T15:02:39.921Z,36.20
2019-06-07T15:05:10.044Z,33.20
2019-06-07T15:07:40.431Z,34.00
2019-06-07T15:10:10.750Z,36.40
2019-06-07T15:12:40.619Z,35.80
2019-06-07T15:15:10.640Z,37.40
2019-06-07T15:17:41.992Z,35.00
2019-06-07T15:20:12.021Z,34.30
2019-06-07T15:22:41.641Z,33.90
2019-06-07T15:25:11.371Z,36.80
2019-06-07T15:27:40.918Z,33.10
2019-06-07T15:30:11.691Z,37.90
2019-06-07T15:32:41.564Z,38.40
2019-06-07T15:35:11.474Z,34.80
2019-06-07T15:37:41.016Z,31.30
2019-06-07T15:40:11.895Z,31.70
2019-06-07T15:42:51.661Z,33.90
2019-06-07T15:45:13.879Z,31.10
2019-06-07T15:47:43.460Z,34.10
2019-06-07T15:50:14.465Z,34.90
2019-06-07T15:52:44.126Z,34.40
2019-06-07T15:55:14.082Z,33.10
2019-06-07T15:57:43.728Z,36.10
2019-06-07T16:00:15.719Z,37.40
2019-06-07T16:02:45.479Z,39.80
2019-06-07T16:05:15.654Z,34.50
2019-06-07T16:07:45.373Z,38.40
2019-06-07T16:10:15.292Z,40.10
2019-06-07T16:12:59.501Z,37.80
2019-06-07T16:15:18.495Z,38.10
2019-06-07T16:17:48.217Z,35.70
2019-06-07T16:20:18.025Z,41.30
2019-06-07T16:22:47.728Z,38.70
2019-06-07T16:25:17.652Z,36.10
2019-06-07T16:27:47.211Z,34.70
2019-06-07T16:30:18.921Z,36.10
2019-06-07T16:32:48.604Z,36.30
2019-06-07T16:35:18.402Z,35.20
2019-06-07T16:37:51.563Z,39.60
2019-06-07T16:40:19.422Z,38.90
2019-06-07T16:42:49.264Z,39.40
2019-06-07T16:45:19.145Z,42.70
2019-06-07T16:47:49.769Z,42.30
2019-06-07T16:50:19.585Z,43.80
2019-06-07T16:52:49.147Z,41.70
2019-06-07T16:55:19.239Z,44.10
2019-06-07T16:57:49.224Z,42.60
2019-06-07T17:00:19.869Z,43.70
2019-06-07T17:02:49.534Z,44.90
2019-06-07T17:05:19.323Z,43.00
2019-06-07T17:07:49.116Z,44.70
2019-06-07T17:10:19.066Z,45.00
2019-06-07T17:12:49.041Z,44.30
2019-06-07T17:15:19.346Z,43.50
2019-06-07T17:17:49.358Z,45.50
2019-06-07T17:20:19.408Z,43.50
2019-06-07T17:22:49.796Z,43.80
2019-06-07T17:25:19.617Z,44.00
2019-06-07T17:27:50.172Z,45.70
2019-06-07T17:30:21.559Z,45.80
2019-06-07T17:32:58.937Z,47.20
2019-06-07T17:35:22.402Z,48.10
2019-06-07T17:37:52.105Z,46.90
2019-06-07T17:40:21.841Z,47.30
2019-06-07T17:42:51.480Z,48.20
2019-06-07T17:45:21.382Z,47.60
2019-06-07T17:47:52.077Z,48.10
2019-06-07T17:50:23.088Z,49.20
2019-06-07T17:52:52.760Z,50.00
2019-06-07T17:55:22.478Z,50.40
2019-06-07T17:57:52.690Z,51.40
2019-06-07T18:00:33.115Z,50.90
2019-06-07T18:02:56.415Z,50.30
2019-06-07T18:05:26.202Z,51.70
2019-06-07T18:07:57.196Z,51.90
2019-06-07T18:10:35.708Z,53.40
2019-06-07T18:13:05.925Z,52.40
2019-06-07T18:15:41.643Z,51.80
2019-06-07T18:18:11.519Z,53.70
2019-06-07T18:20:41.312Z,53.30
2019-06-07T18:23:11.369Z,54.10
2019-06-07T18:25:41.149Z,55.80
2019-06-07T18:28:11.229Z,54.50
2019-06-07T18:30:40.955Z,55.50
2019-06-07T18:33:10.660Z,56.00
2019-06-07T18:35:40.204Z,57.70
2019-06-07T18:38:10.954Z,58.30
2019-06-07T18:40:41.027Z,57.50
2019-06-07T18:43:10.668Z,59.00
2019-06-07T18:45:40.315Z,59.50
2019-06-07T18:48:09.956Z,59.80
2019-06-07T18:50:39.681Z,60.80
2019-06-07T18:53:09.441Z,61.70
2019-06-07T18:55:39.064Z,60.90
2019-06-07T18:58:08.701Z,62.90
2019-06-07T19:00:38.555Z,64.50
2019-06-07T19:03:08.280Z,63.70
2019-06-07T19:05:38.000Z,63.60
2019-06-07T19:08:07.794Z,64.30
2019-06-07T19:10:37.500Z,62.50
2019-06-07T19:13:07.207Z,63.20
2019-06-07T19:15:36.916Z,64.60
2019-06-07T19:18:06.828Z,64.50
2019-06-07T19:20:36.579Z,66.30
2019-06-07T19:23:06.202Z,67.20
2019-06-07T19:25:35.109Z,64.80
2019-06-07T19:28:04.808Z,63.70
2019-06-07T19:30:34.580Z,64.60
2019-06-07T19:33:04.438Z,64.90
2019-06-07T19:35:34.246Z,64.00
2019-06-07T19:38:04.070Z,63.20
2019-06-07T19:40:33.770Z,63.30
2019-06-07T19:43:04.018Z,64.70
2019-06-07T19:45:33.900Z,66.70
2019-06-07T19:48:03.643Z,66.30
2019-06-07T19:50:33.447Z,67.10
2019-06-07T19:53:04.123Z,66.10
2019-06-07T19:55:33.862Z,65.70
2019-06-07T19:58:03.753Z,64.40
2019-06-07T20:00:33.526Z,63.90
2019-06-07T20:03:04.494Z,64.20
2019-06-07T20:05:34.499Z,64.20
2019-06-07T20:08:04.896Z,63.50
2019-06-07T20:10:34.775Z,63.70
2019-06-07T20:13:05.174Z,64.50
2019-06-07T20:15:34.986Z,65.60
2019-06-07T20:18:03.878Z,64.10
2019-06-07T20:20:32.744Z,65.10
2019-06-07T20:23:03.032Z,64.30
2019-06-07T20:25:33.045Z,63.80
2019-06-07T20:28:03.394Z,64.30
2019-06-07T20:30:34.140Z,65.50
2019-06-07T20:33:04.067Z,66.00
2019-06-07T20:35:33.613Z,65.50
2019-06-07T20:38:03.919Z,65.70
2019-06-07T20:40:33.624Z,66.10
2019-06-07T20:43:03.537Z,67.00
2019-06-07T20:45:34.376Z,67.60
2019-06-07T20:48:04.350Z,68.80
2019-06-07T20:50:34.082Z,69.20
2019-06-07T20:53:03.136Z,68.90
2019-06-07T20:55:33.904Z,69.30
2019-06-07T20:58:03.708Z,69.30
2019-06-07T21:00:34.290Z,69.50
2019-06-07T21:03:05.179Z,70.00
2019-06-07T21:05:36.054Z,70.40
2019-06-07T21:08:08.102Z,69.00
2019-06-07T21:10:36.030Z,69.50
2019-06-07T21:13:05.924Z,69.60
2019-06-07T21:15:47.909Z,69.20
2019-06-07T21:18:12.035Z,70.20
2019-06-07T21:20:38.349Z,71.80
2019-06-07T21:23:09.042Z,70.60
2019-06-07T21:25:38.811Z,70.30
2019-06-07T21:28:09.346Z,70.10
2019-06-07T21:30:39.269Z,69.00
2019-06-07T21:33:09.682Z,70.40
2019-06-07T21:35:39.532Z,70.00
2019-06-07T21:38:09.918Z,69.60
2019-06-07T21:40:39.608Z,69.70
2019-06-07T21:43:08.709Z,71.40
2019-06-07T21:45:47.193Z,70.70
2019-06-07T21:48:16.909Z,68.00
2019-06-07T21:50:46.676Z,67.80
2019-06-07T21:53:16.415Z,66.70
2019-06-07T21:55:45.254Z,68.20
2019-06-07T21:58:15.740Z,68.30
2019-06-07T22:00:49.030Z,68.20
2019-06-07T22:03:19.185Z,67.60
2019-06-07T22:18:42.889Z,69.70
2019-06-07T22:21:14.732Z,68.90
2019-06-07T22:23:44.618Z,71.40
2019-06-07T22:29:04.651Z,70.90
2019-06-07T22:31:35.406Z,71.10
2019-06-07T22:34:06.723Z,71.30
2019-06-07T22:36:37.569Z,71.60
2019-06-07T22:39:07.629Z,71.20
2019-06-07T22:41:37.678Z,70.60
2019-06-07T22:44:08.619Z,72.10
2019-06-07T22:46:38.487Z,72.00
2019-06-07T22:49:11.390Z,70.70
2019-06-07T22:51:41.213Z,71.60
2019-06-07T22:54:14.045Z,71.80
2019-06-07T22:56:51.482Z,71.80
2019-06-07T22:59:21.336Z,71.50
2019-06-07T23:01:55.537Z,73.70
2019-06-07T23:04:25.231Z,73.60
2019-06-07T23:06:55.027Z,73.90
2019-06-07T23:09:24.889Z,73.30
2019-06-07T23:11:56.435Z,74.60
2019-06-07T23:14:27.358Z,74.50
2019-06-07T23:16:57.064Z,73.70
2019-06-07T23:19:26.005Z,73.20
2019-06-07T23:21:55.709Z,74.10
2019-06-07T23:24:24.631Z,74.60
2019-06-07T23:26:54.539Z,74.00
2019-06-07T23:29:25.541Z,74.70
2019-06-07T23:34:33.986Z,74.60
2019-06-07T23:37:05.306Z,76.10
2019-06-07T23:39:36.023Z,76.30
2019-06-07T23:42:04.955Z,74.70
2019-06-07T23:44:34.687Z,75.20
2019-06-07T23:47:11.349Z,75.50
2019-06-07T23:49:36.855Z,76.70
2019-06-07T23:52:08.343Z,77.20
2019-06-07T23:54:39.237Z,76.60
2019-06-07T23:57:08.975Z,76.80
2019-06-07T23:59:37.827Z,77.30
